sensor_id;sensor_type;location;lat;lon;timestamp;P1;durP1;ratioP1;P2;durP2;ratioP2
70312;SDS011;57723;51.698;5.344;2023-03-01T00:01:22;1.73;;;1.00;;
70312;SDS011;57723;51.698;5.344;2023-03-01T00:03:48;2.78;;;1.20;;
70312;SDS011;57723;51.698;5.344;2023-03-01T00:06:13;4.00;;;1.20;;
70312;SDS011;57723;51.698;5.344;2023-03-01T00:08:39;2.75;;;1.33;;
70312;SDS011;57723;51.698;5.344;2023-03-01T00:13:32;2.78;;;1.20;;
70312;SDS011;57723;51.698;5.344;2023-03-01T00:15:58;4.77;;;1.30;;
70312;SDS011;57723;51.698;5.344;2023-03-01T00:18:24;2.88;;;1.00;;
70312;SDS011;57723;51.698;5.344;2023-03-01T00:20:53;2.43;;;1.17;;
70312;SDS011;57723;51.698;5.344;2023-03-01T00:23:18;2.80;;;1.10;;
70312;SDS011;57723;51.698;5.344;2023-03-01T00:25:44;3.37;;;1.10;;
70312;SDS011;57723;51.698;5.344;2023-03-01T00:28:09;2.77;;;1.13;;
70312;SDS011;57723;51.698;5.344;2023-03-01T00:30:34;1.87;;;1.00;;
70312;SDS011;57723;51.698;5.344;2023-03-01T00:33:00;4.70;;;1.27;;
70312;SDS011;57723;51.698;5.344;2023-03-01T00:35:25;2.53;;;1.10;;
70312;SDS011;57723;51.698;5.344;2023-03-01T00:37:51;3.33;;;1.10;;
70312;SDS011;57723;51.698;5.344;2023-03-01T00:40:22;2.70;;;1.10;;
70312;SDS011;57723;51.698;5.344;2023-03-01T00:42:48;2.47;;;1.05;;
70312;SDS011;57723;51.698;5.344;2023-03-01T00:45:13;2.63;;;1.07;;
70312;SDS011;57723;51.698;5.344;2023-03-01T00:47:38;2.37;;;1.30;;
70312;SDS011;57723;51.698;5.344;2023-03-01T00:50:04;2.30;;;1.13;;
70312;SDS011;57723;51.698;5.344;2023-03-01T00:52:29;2.30;;;1.20;;
70312;SDS011;57723;51.698;5.344;2023-03-01T00:54:54;3.00;;;1.27;;
70312;SDS011;57723;51.698;5.344;2023-03-01T00:57:20;2.07;;;1.20;;
70312;SDS011;57723;51.698;5.344;2023-03-01T00:59:45;3.70;;;1.10;;
70312;SDS011;57723;51.698;5.344;2023-03-01T01:02:11;2.38;;;1.10;;
70312;SDS011;57723;51.698;5.344;2023-03-01T01:04:36;2.03;;;1.00;;
70312;SDS011;57723;51.698;5.344;2023-03-01T01:07:01;2.93;;;1.13;;
70312;SDS011;57723;51.698;5.344;2023-03-01T01:09:26;1.70;;;1.10;;
70312;SDS011;57723;51.698;5.344;2023-03-01T01:11:52;1.43;;;1.00;;
70312;SDS011;57723;51.698;5.344;2023-03-01T01:14:17;2.57;;;1.30;;
70312;SDS011;57723;51.698;5.344;2023-03-01T01:16:43;2.70;;;1.17;;
70312;SDS011;57723;51.698;5.344;2023-03-01T01:19:10;2.80;;;1.20;;
70312;SDS011;57723;51.698;5.344;2023-03-01T01:21:35;1.45;;;0.90;;
70312;SDS011;57723;51.698;5.344;2023-03-01T01:24:02;2.80;;;1.10;;
70312;SDS011;57723;51.698;5.344;2023-03-01T01:26:28;2.40;;;1.00;;
70312;SDS011;57723;51.698;5.344;2023-03-01T01:28:57;2.28;;;1.10;;
70312;SDS011;57723;51.698;5.344;2023-03-01T01:31:23;1.90;;;1.08;;
70312;SDS011;57723;51.698;5.344;2023-03-01T01:33:49;1.80;;;1.00;;
70312;SDS011;57723;51.698;5.344;2023-03-01T01:36:14;1.83;;;1.00;;
70312;SDS011;57723;51.698;5.344;2023-03-01T01:38:40;1.87;;;1.00;;
70312;SDS011;57723;51.698;5.344;2023-03-01T01:41:07;2.03;;;1.08;;
70312;SDS011;57723;51.698;5.344;2023-03-01T01:43:36;2.43;;;1.10;;
70312;SDS011;57723;51.698;5.344;2023-03-01T01:46:03;2.05;;;1.08;;
70312;SDS011;57723;51.698;5.344;2023-03-01T01:48:34;4.70;;;1.20;;
70312;SDS011;57723;51.698;5.344;2023-03-01T01:51:05;2.97;;;1.00;;
70312;SDS011;57723;51.698;5.344;2023-03-01T01:53:32;1.95;;;1.00;;
70312;SDS011;57723;51.698;5.344;2023-03-01T01:55:58;1.63;;;1.00;;
70312;SDS011;57723;51.698;5.344;2023-03-01T01:58:25;4.07;;;1.20;;
70312;SDS011;57723;51.698;5.344;2023-03-01T02:00:52;1.40;;;1.00;;
70312;SDS011;57723;51.698;5.344;2023-03-01T02:03:19;2.10;;;1.13;;
70312;SDS011;57723;51.698;5.344;2023-03-01T02:05:47;2.78;;;1.15;;
70312;SDS011;57723;51.698;5.344;2023-03-01T02:08:15;2.05;;;1.00;;
70312;SDS011;57723;51.698;5.344;2023-03-01T02:10:42;1.67;;;0.97;;
70312;SDS011;57723;51.698;5.344;2023-03-01T02:13:07;2.58;;;1.08;;
70312;SDS011;57723;51.698;5.344;2023-03-01T02:15:33;1.60;;;0.90;;
70312;SDS011;57723;51.698;5.344;2023-03-01T02:17:59;2.83;;;1.10;;
70312;SDS011;57723;51.698;5.344;2023-03-01T02:23:00;2.03;;;0.95;;
70312;SDS011;57723;51.698;5.344;2023-03-01T02:30:20;2.10;;;1.10;;
70312;SDS011;57723;51.698;5.344;2023-03-01T02:32:46;2.97;;;1.17;;
70312;SDS011;57723;51.698;5.344;2023-03-01T02:35:13;2.30;;;1.10;;
70312;SDS011;57723;51.698;5.344;2023-03-01T02:37:39;3.28;;;1.08;;
70312;SDS011;57723;51.698;5.344;2023-03-01T02:40:07;2.22;;;1.20;;
70312;SDS011;57723;51.698;5.344;2023-03-01T02:42:37;1.95;;;1.20;;
70312;SDS011;57723;51.698;5.344;2023-03-01T02:45:09;1.60;;;1.00;;
70312;SDS011;57723;51.698;5.344;2023-03-01T02:47:35;1.77;;;1.10;;
70312;SDS011;57723;51.698;5.344;2023-03-01T02:50:00;3.43;;;1.10;;
70312;SDS011;57723;51.698;5.344;2023-03-01T02:55:07;2.50;;;1.00;;
70312;SDS011;57723;51.698;5.344;2023-03-01T02:57:34;2.85;;;1.10;;
70312;SDS011;57723;51.698;5.344;2023-03-01T03:00:02;1.42;;;1.00;;
70312;SDS011;57723;51.698;5.344;2023-03-01T03:02:31;1.60;;;1.10;;
70312;SDS011;57723;51.698;5.344;2023-03-01T03:05:08;2.38;;;1.10;;
70312;SDS011;57723;51.698;5.344;2023-03-01T03:07:34;1.52;;;1.00;;
70312;SDS011;57723;51.698;5.344;2023-03-01T03:10:02;1.50;;;1.00;;
70312;SDS011;57723;51.698;5.344;2023-03-01T03:12:27;2.47;;;1.10;;
70312;SDS011;57723;51.698;5.344;2023-03-01T03:14:52;1.30;;;1.00;;
70312;SDS011;57723;51.698;5.344;2023-03-01T03:17:18;2.23;;;1.10;;
70312;SDS011;57723;51.698;5.344;2023-03-01T03:19:43;2.10;;;1.00;;
70312;SDS011;57723;51.698;5.344;2023-03-01T03:22:11;1.55;;;1.08;;
70312;SDS011;57723;51.698;5.344;2023-03-01T03:24:36;2.20;;;1.00;;
70312;SDS011;57723;51.698;5.344;2023-03-01T03:27:12;1.92;;;1.00;;
70312;SDS011;57723;51.698;5.344;2023-03-01T03:29:37;1.50;;;1.00;;
70312;SDS011;57723;51.698;5.344;2023-03-01T03:32:02;1.07;;;0.80;;
70312;SDS011;57723;51.698;5.344;2023-03-01T03:34:37;2.20;;;1.05;;
70312;SDS011;57723;51.698;5.344;2023-03-01T03:37:03;1.60;;;0.90;;
70312;SDS011;57723;51.698;5.344;2023-03-01T03:39:28;2.37;;;1.10;;
70312;SDS011;57723;51.698;5.344;2023-03-01T03:41:59;2.42;;;1.10;;
70312;SDS011;57723;51.698;5.344;2023-03-01T03:44:25;1.98;;;1.10;;
70312;SDS011;57723;51.698;5.344;2023-03-01T03:46:53;1.83;;;0.97;;
70312;SDS011;57723;51.698;5.344;2023-03-01T03:49:19;2.07;;;1.10;;
70312;SDS011;57723;51.698;5.344;2023-03-01T03:51:45;1.52;;;1.00;;
70312;SDS011;57723;51.698;5.344;2023-03-01T03:54:11;1.80;;;1.10;;
70312;SDS011;57723;51.698;5.344;2023-03-01T03:56:36;1.83;;;1.10;;
70312;SDS011;57723;51.698;5.344;2023-03-01T03:59:02;1.87;;;1.20;;
70312;SDS011;57723;51.698;5.344;2023-03-01T04:01:27;1.87;;;1.10;;
70312;SDS011;57723;51.698;5.344;2023-03-01T04:03:52;1.97;;;1.10;;
70312;SDS011;57723;51.698;5.344;2023-03-01T04:06:19;2.08;;;1.20;;
70312;SDS011;57723;51.698;5.344;2023-03-01T04:08:44;1.77;;;1.00;;
70312;SDS011;57723;51.698;5.344;2023-03-01T04:11:10;2.33;;;1.10;;
70312;SDS011;57723;51.698;5.344;2023-03-01T04:13:52;1.92;;;1.10;;
70312;SDS011;57723;51.698;5.344;2023-03-01T04:16:17;3.13;;;1.10;;
70312;SDS011;57723;51.698;5.344;2023-03-01T04:18:43;2.77;;;1.20;;
70312;SDS011;57723;51.698;5.344;2023-03-01T04:21:08;2.73;;;1.20;;
70312;SDS011;57723;51.698;5.344;2023-03-01T04:23:34;1.37;;;0.87;;
70312;SDS011;57723;51.698;5.344;2023-03-01T04:26:00;3.05;;;1.17;;
70312;SDS011;57723;51.698;5.344;2023-03-01T04:28:29;3.07;;;1.20;;
70312;SDS011;57723;51.698;5.344;2023-03-01T04:30:55;2.15;;;1.13;;
70312;SDS011;57723;51.698;5.344;2023-03-01T04:33:21;2.10;;;1.20;;
70312;SDS011;57723;51.698;5.344;2023-03-01T04:35:46;1.57;;;0.90;;
70312;SDS011;57723;51.698;5.344;2023-03-01T04:38:14;1.95;;;0.93;;
70312;SDS011;57723;51.698;5.344;2023-03-01T04:40:39;2.73;;;1.37;;
70312;SDS011;57723;51.698;5.344;2023-03-01T04:43:05;1.90;;;1.00;;
70312;SDS011;57723;51.698;5.344;2023-03-01T04:45:31;2.03;;;1.00;;
70312;SDS011;57723;51.698;5.344;2023-03-01T04:47:56;1.48;;;1.05;;
70312;SDS011;57723;51.698;5.344;2023-03-01T04:50:23;2.42;;;0.90;;
70312;SDS011;57723;51.698;5.344;2023-03-01T04:52:48;2.55;;;0.98;;
70312;SDS011;57723;51.698;5.344;2023-03-01T04:55:14;1.50;;;1.08;;
70312;SDS011;57723;51.698;5.344;2023-03-01T04:57:39;1.87;;;1.07;;
70312;SDS011;57723;51.698;5.344;2023-03-01T05:00:05;2.77;;;1.00;;
70312;SDS011;57723;51.698;5.344;2023-03-01T05:03:05;10.32;;;1.10;;
70312;SDS011;57723;51.698;5.344;2023-03-01T05:05:31;1.92;;;1.00;;
70312;SDS011;57723;51.698;5.344;2023-03-01T05:07:57;1.70;;;0.90;;
70312;SDS011;57723;51.698;5.344;2023-03-01T05:10:23;2.15;;;1.00;;
70312;SDS011;57723;51.698;5.344;2023-03-01T05:12:49;1.27;;;0.85;;
70312;SDS011;57723;51.698;5.344;2023-03-01T05:15:14;2.53;;;0.90;;
70312;SDS011;57723;51.698;5.344;2023-03-01T05:17:40;1.80;;;1.00;;
70312;SDS011;57723;51.698;5.344;2023-03-01T05:20:05;1.50;;;0.80;;
70312;SDS011;57723;51.698;5.344;2023-03-01T05:22:34;2.63;;;1.10;;
70312;SDS011;57723;51.698;5.344;2023-03-01T05:24:59;1.58;;;0.90;;
70312;SDS011;57723;51.698;5.344;2023-03-01T05:27:24;1.90;;;1.10;;
70312;SDS011;57723;51.698;5.344;2023-03-01T05:29:50;1.93;;;1.00;;
70312;SDS011;57723;51.698;5.344;2023-03-01T05:32:15;1.83;;;1.00;;
70312;SDS011;57723;51.698;5.344;2023-03-01T05:34:41;2.50;;;1.10;;
70312;SDS011;57723;51.698;5.344;2023-03-01T05:37:07;2.50;;;1.00;;
70312;SDS011;57723;51.698;5.344;2023-03-01T05:39:33;2.20;;;1.05;;
70312;SDS011;57723;51.698;5.344;2023-03-01T05:41:59;2.57;;;1.10;;
70312;SDS011;57723;51.698;5.344;2023-03-01T05:44:25;1.92;;;0.90;;
70312;SDS011;57723;51.698;5.344;2023-03-01T05:46:51;1.90;;;0.87;;
70312;SDS011;57723;51.698;5.344;2023-03-01T05:49:19;1.50;;;0.90;;
70312;SDS011;57723;51.698;5.344;2023-03-01T05:51:48;2.13;;;0.90;;
70312;SDS011;57723;51.698;5.344;2023-03-01T05:54:17;2.65;;;1.10;;
70312;SDS011;57723;51.698;5.344;2023-03-01T05:56:43;1.93;;;1.00;;
70312;SDS011;57723;51.698;5.344;2023-03-01T05:59:08;2.35;;;1.00;;
70312;SDS011;57723;51.698;5.344;2023-03-01T06:01:34;1.77;;;1.00;;
70312;SDS011;57723;51.698;5.344;2023-03-01T06:04:00;2.50;;;1.10;;
70312;SDS011;57723;51.698;5.344;2023-03-01T06:06:26;2.55;;;1.02;;
70312;SDS011;57723;51.698;5.344;2023-03-01T06:08:51;3.00;;;1.10;;
70312;SDS011;57723;51.698;5.344;2023-03-01T06:11:17;2.90;;;1.07;;
70312;SDS011;57723;51.698;5.344;2023-03-01T06:13:42;2.10;;;1.20;;
70312;SDS011;57723;51.698;5.344;2023-03-01T06:16:08;2.22;;;1.10;;
70312;SDS011;57723;51.698;5.344;2023-03-01T06:18:36;2.23;;;1.10;;
70312;SDS011;57723;51.698;5.344;2023-03-01T06:21:02;2.53;;;0.98;;
70312;SDS011;57723;51.698;5.344;2023-03-01T06:23:27;3.27;;;1.20;;
70312;SDS011;57723;51.698;5.344;2023-03-01T06:25:53;2.00;;;0.90;;
70312;SDS011;57723;51.698;5.344;2023-03-01T06:28:18;7.60;;;1.30;;
70312;SDS011;57723;51.698;5.344;2023-03-01T06:30:44;2.23;;;1.23;;
70312;SDS011;57723;51.698;5.344;2023-03-01T06:33:09;2.70;;;1.03;;
70312;SDS011;57723;51.698;5.344;2023-03-01T06:35:34;4.50;;;1.10;;
70312;SDS011;57723;51.698;5.344;2023-03-01T06:38:00;4.50;;;1.40;;
70312;SDS011;57723;51.698;5.344;2023-03-01T06:40:26;2.72;;;2.50;;
70312;SDS011;57723;51.698;5.344;2023-03-01T06:42:51;7.47;;;6.97;;
70312;SDS011;57723;51.698;5.344;2023-03-01T06:45:19;16.08;;;14.75;;
70312;SDS011;57723;51.698;5.344;2023-03-01T06:47:45;20.58;;;18.98;;
70312;SDS011;57723;51.698;5.344;2023-03-01T06:50:10;19.00;;;17.37;;
70312;SDS011;57723;51.698;5.344;2023-03-01T06:52:37;10.40;;;1.20;;
70312;SDS011;57723;51.698;5.344;2023-03-01T06:55:03;3.08;;;0.98;;
70312;SDS011;57723;51.698;5.344;2023-03-01T06:57:28;6.72;;;1.30;;
70312;SDS011;57723;51.698;5.344;2023-03-01T06:59:55;5.00;;;1.00;;
70312;SDS011;57723;51.698;5.344;2023-03-01T07:02:21;22.98;;;1.30;;
70312;SDS011;57723;51.698;5.344;2023-03-01T07:04:46;2.63;;;1.27;;
70312;SDS011;57723;51.698;5.344;2023-03-01T07:07:14;8.90;;;1.17;;
70312;SDS011;57723;51.698;5.344;2023-03-01T07:09:40;5.55;;;1.30;;
70312;SDS011;57723;51.698;5.344;2023-03-01T07:12:05;4.32;;;1.08;;
70312;SDS011;57723;51.698;5.344;2023-03-01T07:14:31;5.67;;;1.20;;
70312;SDS011;57723;51.698;5.344;2023-03-01T07:16:57;5.00;;;1.20;;
70312;SDS011;57723;51.698;5.344;2023-03-01T07:19:22;5.35;;;1.20;;
70312;SDS011;57723;51.698;5.344;2023-03-01T07:21:48;4.43;;;1.20;;
70312;SDS011;57723;51.698;5.344;2023-03-01T07:24:13;3.23;;;1.10;;
70312;SDS011;57723;51.698;5.344;2023-03-01T07:26:38;5.97;;;1.40;;
70312;SDS011;57723;51.698;5.344;2023-03-01T07:29:04;5.83;;;1.13;;
70312;SDS011;57723;51.698;5.344;2023-03-01T07:31:30;4.10;;;1.27;;
70312;SDS011;57723;51.698;5.344;2023-03-01T07:33:58;3.55;;;1.20;;
70312;SDS011;57723;51.698;5.344;2023-03-01T07:36:25;3.67;;;1.15;;
70312;SDS011;57723;51.698;5.344;2023-03-01T07:39:01;2.17;;;1.10;;
70312;SDS011;57723;51.698;5.344;2023-03-01T07:41:32;3.17;;;1.30;;
70312;SDS011;57723;51.698;5.344;2023-03-01T07:43:58;4.75;;;1.40;;
70312;SDS011;57723;51.698;5.344;2023-03-01T07:46:23;4.20;;;1.30;;
70312;SDS011;57723;51.698;5.344;2023-03-01T07:48:48;3.07;;;1.30;;
70312;SDS011;57723;51.698;5.344;2023-03-01T07:51:14;3.67;;;1.47;;
70312;SDS011;57723;51.698;5.344;2023-03-01T07:53:39;2.58;;;1.10;;
70312;SDS011;57723;51.698;5.344;2023-03-01T07:56:12;4.35;;;1.40;;
70312;SDS011;57723;51.698;5.344;2023-03-01T07:58:38;2.28;;;1.20;;
70312;SDS011;57723;51.698;5.344;2023-03-01T08:01:04;2.65;;;1.17;;
70312;SDS011;57723;51.698;5.344;2023-03-01T08:03:30;2.58;;;1.30;;
70312;SDS011;57723;51.698;5.344;2023-03-01T08:05:55;4.67;;;1.80;;
70312;SDS011;57723;51.698;5.344;2023-03-01T08:08:21;5.47;;;1.40;;
70312;SDS011;57723;51.698;5.344;2023-03-01T08:10:46;5.40;;;1.80;;
70312;SDS011;57723;51.698;5.344;2023-03-01T08:13:12;5.68;;;1.70;;
70312;SDS011;57723;51.698;5.344;2023-03-01T08:15:37;5.17;;;1.60;;
70312;SDS011;57723;51.698;5.344;2023-03-01T08:18:02;4.23;;;1.60;;
70312;SDS011;57723;51.698;5.344;2023-03-01T08:20:27;4.97;;;2.10;;
70312;SDS011;57723;51.698;5.344;2023-03-01T08:22:53;4.67;;;2.00;;
70312;SDS011;57723;51.698;5.344;2023-03-01T08:25:18;3.27;;;1.87;;
70312;SDS011;57723;51.698;5.344;2023-03-01T08:27:44;4.70;;;1.80;;
70312;SDS011;57723;51.698;5.344;2023-03-01T08:30:09;4.85;;;2.10;;
70312;SDS011;57723;51.698;5.344;2023-03-01T08:32:36;6.50;;;2.30;;
70312;SDS011;57723;51.698;5.344;2023-03-01T08:35:01;5.00;;;2.10;;
70312;SDS011;57723;51.698;5.344;2023-03-01T08:37:26;4.87;;;1.90;;
70312;SDS011;57723;51.698;5.344;2023-03-01T08:39:52;5.20;;;1.85;;
70312;SDS011;57723;51.698;5.344;2023-03-01T08:42:19;3.90;;;1.80;;
70312;SDS011;57723;51.698;5.344;2023-03-01T08:44:45;6.93;;;2.20;;
70312;SDS011;57723;51.698;5.344;2023-03-01T08:47:10;4.77;;;2.13;;
70312;SDS011;57723;51.698;5.344;2023-03-01T08:49:35;5.30;;;2.07;;
70312;SDS011;57723;51.698;5.344;2023-03-01T08:52:01;4.00;;;1.80;;
70312;SDS011;57723;51.698;5.344;2023-03-01T08:54:27;6.47;;;2.17;;
70312;SDS011;57723;51.698;5.344;2023-03-01T08:56:52;4.53;;;1.70;;
70312;SDS011;57723;51.698;5.344;2023-03-01T08:59:18;4.07;;;1.63;;
70312;SDS011;57723;51.698;5.344;2023-03-01T09:01:43;5.93;;;2.10;;
70312;SDS011;57723;51.698;5.344;2023-03-01T09:04:09;5.53;;;1.47;;
70312;SDS011;57723;51.698;5.344;2023-03-01T09:06:35;4.30;;;1.40;;
70312;SDS011;57723;51.698;5.344;2023-03-01T09:09:00;6.87;;;1.70;;
70312;SDS011;57723;51.698;5.344;2023-03-01T09:11:26;4.60;;;1.30;;
70312;SDS011;57723;51.698;5.344;2023-03-01T09:13:51;3.43;;;1.50;;
70312;SDS011;57723;51.698;5.344;2023-03-01T09:16:18;4.90;;;1.80;;
70312;SDS011;57723;51.698;5.344;2023-03-01T09:18:44;3.33;;;1.30;;
70312;SDS011;57723;51.698;5.344;2023-03-01T09:21:11;3.50;;;1.60;;
70312;SDS011;57723;51.698;5.344;2023-03-01T09:23:47;3.83;;;1.70;;
70312;SDS011;57723;51.698;5.344;2023-03-01T09:26:14;4.15;;;1.70;;
70312;SDS011;57723;51.698;5.344;2023-03-01T09:28:41;2.80;;;1.50;;
70312;SDS011;57723;51.698;5.344;2023-03-01T09:31:07;3.03;;;1.40;;
70312;SDS011;57723;51.698;5.344;2023-03-01T09:33:32;2.97;;;1.35;;
70312;SDS011;57723;51.698;5.344;2023-03-01T09:35:59;2.92;;;1.50;;
70312;SDS011;57723;51.698;5.344;2023-03-01T09:38:24;3.25;;;1.30;;
70312;SDS011;57723;51.698;5.344;2023-03-01T09:40:50;2.97;;;1.48;;
70312;SDS011;57723;51.698;5.344;2023-03-01T09:43:21;3.80;;;1.47;;
70312;SDS011;57723;51.698;5.344;2023-03-01T09:45:48;3.88;;;1.73;;
70312;SDS011;57723;51.698;5.344;2023-03-01T09:48:18;4.20;;;1.50;;
70312;SDS011;57723;51.698;5.344;2023-03-01T09:50:44;2.53;;;1.40;;
70312;SDS011;57723;51.698;5.344;2023-03-01T09:53:16;2.85;;;1.55;;
70312;SDS011;57723;51.698;5.344;2023-03-01T09:55:48;3.38;;;1.50;;
70312;SDS011;57723;51.698;5.344;2023-03-01T10:00:43;3.78;;;1.55;;
70312;SDS011;57723;51.698;5.344;2023-03-01T10:10:57;3.00;;;1.45;;
70312;SDS011;57723;51.698;5.344;2023-03-01T10:13:33;3.25;;;1.23;;
70312;SDS011;57723;51.698;5.344;2023-03-01T10:16:02;3.47;;;1.42;;
70312;SDS011;57723;51.698;5.344;2023-03-01T10:18:29;4.20;;;1.50;;
70312;SDS011;57723;51.698;5.344;2023-03-01T10:21:00;2.87;;;1.37;;
70312;SDS011;57723;51.698;5.344;2023-03-01T10:23:27;3.25;;;1.40;;
70312;SDS011;57723;51.698;5.344;2023-03-01T10:31:04;2.50;;;1.30;;
70312;SDS011;57723;51.698;5.344;2023-03-01T10:33:34;2.77;;;1.30;;
70312;SDS011;57723;51.698;5.344;2023-03-01T10:36:00;2.90;;;1.35;;
70312;SDS011;57723;51.698;5.344;2023-03-01T10:38:25;3.03;;;1.43;;
70312;SDS011;57723;51.698;5.344;2023-03-01T10:40:55;3.95;;;1.40;;
70312;SDS011;57723;51.698;5.344;2023-03-01T10:43:24;3.15;;;1.30;;
70312;SDS011;57723;51.698;5.344;2023-03-01T10:45:50;3.03;;;1.27;;
70312;SDS011;57723;51.698;5.344;2023-03-01T10:48:26;3.33;;;1.50;;
70312;SDS011;57723;51.698;5.344;2023-03-01T10:53:43;2.92;;;1.35;;
70312;SDS011;57723;51.698;5.344;2023-03-01T10:56:13;3.83;;;1.40;;
70312;SDS011;57723;51.698;5.344;2023-03-01T10:58:40;3.08;;;1.40;;
70312;SDS011;57723;51.698;5.344;2023-03-01T11:01:09;2.70;;;1.40;;
70312;SDS011;57723;51.698;5.344;2023-03-01T11:06:36;3.40;;;1.30;;
70312;SDS011;57723;51.698;5.344;2023-03-01T11:09:22;3.30;;;1.40;;
70312;SDS011;57723;51.698;5.344;2023-03-01T11:11:57;2.13;;;1.30;;
70312;SDS011;57723;51.698;5.344;2023-03-01T11:16:49;2.70;;;1.40;;
70312;SDS011;57723;51.698;5.344;2023-03-01T11:19:22;3.78;;;1.30;;
70312;SDS011;57723;51.698;5.344;2023-03-01T11:21:53;2.87;;;1.30;;
70312;SDS011;57723;51.698;5.344;2023-03-01T11:24:23;4.15;;;1.60;;
70312;SDS011;57723;51.698;5.344;2023-03-01T11:26:52;3.70;;;1.30;;
70312;SDS011;57723;51.698;5.344;2023-03-01T11:29:39;3.13;;;1.45;;
70312;SDS011;57723;51.698;5.344;2023-03-01T11:32:05;3.33;;;1.50;;
70312;SDS011;57723;51.698;5.344;2023-03-01T11:36:59;2.90;;;1.38;;
70312;SDS011;57723;51.698;5.344;2023-03-01T11:39:51;2.70;;;1.40;;
70312;SDS011;57723;51.698;5.344;2023-03-01T11:42:19;3.20;;;1.30;;
70312;SDS011;57723;51.698;5.344;2023-03-01T11:44:47;3.00;;;1.40;;
70312;SDS011;57723;51.698;5.344;2023-03-01T11:52:21;2.55;;;1.48;;
70312;SDS011;57723;51.698;5.344;2023-03-01T11:55:13;2.80;;;1.30;;
70312;SDS011;57723;51.698;5.344;2023-03-01T11:57:42;2.47;;;1.20;;
70312;SDS011;57723;51.698;5.344;2023-03-01T12:03:02;2.67;;;1.20;;
70312;SDS011;57723;51.698;5.344;2023-03-01T12:08:14;2.65;;;1.50;;
70312;SDS011;57723;51.698;5.344;2023-03-01T12:13:12;3.60;;;1.43;;
70312;SDS011;57723;51.698;5.344;2023-03-01T12:20:39;2.27;;;1.20;;
70312;SDS011;57723;51.698;5.344;2023-03-01T12:25:39;5.18;;;1.35;;
70312;SDS011;57723;51.698;5.344;2023-03-01T12:46:30;2.40;;;1.30;;
70312;SDS011;57723;51.698;5.344;2023-03-01T12:49:14;3.15;;;1.30;;
70312;SDS011;57723;51.698;5.344;2023-03-01T12:51:41;2.65;;;1.25;;
70312;SDS011;57723;51.698;5.344;2023-03-01T12:54:15;4.67;;;1.30;;
70312;SDS011;57723;51.698;5.344;2023-03-01T12:56:41;2.40;;;1.30;;
70312;SDS011;57723;51.698;5.344;2023-03-01T13:07:10;3.40;;;1.30;;
70312;SDS011;57723;51.698;5.344;2023-03-01T13:12:03;3.50;;;1.13;;
70312;SDS011;57723;51.698;5.344;2023-03-01T13:16:57;3.22;;;1.13;;
70312;SDS011;57723;51.698;5.344;2023-03-01T13:19:26;1.53;;;1.07;;
70312;SDS011;57723;51.698;5.344;2023-03-01T13:21:54;2.40;;;1.30;;
70312;SDS011;57723;51.698;5.344;2023-03-01T13:24:37;1.92;;;1.00;;
70312;SDS011;57723;51.698;5.344;2023-03-01T13:32:27;2.40;;;1.20;;
70312;SDS011;57723;51.698;5.344;2023-03-01T13:37:40;2.83;;;1.30;;
70312;SDS011;57723;51.698;5.344;2023-03-01T13:42:54;2.95;;;1.10;;
70312;SDS011;57723;51.698;5.344;2023-03-01T13:45:24;1.80;;;0.90;;
70312;SDS011;57723;51.698;5.344;2023-03-01T13:47:58;1.67;;;0.90;;
70312;SDS011;57723;51.698;5.344;2023-03-01T13:50:25;2.08;;;1.02;;
70312;SDS011;57723;51.698;5.344;2023-03-01T13:52:52;1.60;;;0.80;;
70312;SDS011;57723;51.698;5.344;2023-03-01T13:55:19;1.75;;;0.90;;
70312;SDS011;57723;51.698;5.344;2023-03-01T13:57:50;1.33;;;0.80;;
70312;SDS011;57723;51.698;5.344;2023-03-01T14:00:25;1.50;;;0.80;;
70312;SDS011;57723;51.698;5.344;2023-03-01T14:03:09;1.17;;;0.80;;
70312;SDS011;57723;51.698;5.344;2023-03-01T14:05:35;2.40;;;0.90;;
70312;SDS011;57723;51.698;5.344;2023-03-01T14:08:01;1.58;;;0.80;;
70312;SDS011;57723;51.698;5.344;2023-03-01T14:10:29;2.27;;;0.90;;
70312;SDS011;57723;51.698;5.344;2023-03-01T14:15:39;0.98;;;0.70;;
70312;SDS011;57723;51.698;5.344;2023-03-01T14:18:14;1.50;;;0.73;;
70312;SDS011;57723;51.698;5.344;2023-03-01T14:20:43;1.60;;;0.80;;
70312;SDS011;57723;51.698;5.344;2023-03-01T14:23:17;2.58;;;1.00;;
70312;SDS011;57723;51.698;5.344;2023-03-01T14:25:50;1.60;;;0.85;;
70312;SDS011;57723;51.698;5.344;2023-03-01T14:30:52;2.30;;;0.70;;
70312;SDS011;57723;51.698;5.344;2023-03-01T14:33:22;1.20;;;0.70;;
70312;SDS011;57723;51.698;5.344;2023-03-01T14:36:02;1.25;;;0.70;;
70312;SDS011;57723;51.698;5.344;2023-03-01T14:38:35;1.13;;;0.70;;
70312;SDS011;57723;51.698;5.344;2023-03-01T14:43:32;1.27;;;0.70;;
70312;SDS011;57723;51.698;5.344;2023-03-01T14:45:58;2.17;;;0.83;;
70312;SDS011;57723;51.698;5.344;2023-03-01T14:48:24;1.50;;;0.75;;
70312;SDS011;57723;51.698;5.344;2023-03-01T14:50:50;3.30;;;1.10;;
70312;SDS011;57723;51.698;5.344;2023-03-01T14:53:20;7.65;;;0.90;;
70312;SDS011;57723;51.698;5.344;2023-03-01T14:55:48;1.73;;;0.80;;
70312;SDS011;57723;51.698;5.344;2023-03-01T14:58:15;3.40;;;0.70;;
70312;SDS011;57723;51.698;5.344;2023-03-01T15:00:47;1.65;;;0.75;;
70312;SDS011;57723;51.698;5.344;2023-03-01T15:03:23;3.25;;;0.90;;
70312;SDS011;57723;51.698;5.344;2023-03-01T15:05:49;1.65;;;0.70;;
70312;SDS011;57723;51.698;5.344;2023-03-01T15:08:20;1.77;;;0.80;;
70312;SDS011;57723;51.698;5.344;2023-03-01T15:11:00;1.60;;;0.93;;
70312;SDS011;57723;51.698;5.344;2023-03-01T15:13:28;1.25;;;0.82;;
70312;SDS011;57723;51.698;5.344;2023-03-01T15:16:16;1.85;;;1.05;;
70312;SDS011;57723;51.698;5.344;2023-03-01T15:18:45;1.75;;;1.02;;
70312;SDS011;57723;51.698;5.344;2023-03-01T15:21:15;2.85;;;1.10;;
70312;SDS011;57723;51.698;5.344;2023-03-01T15:23:41;2.97;;;0.90;;
70312;SDS011;57723;51.698;5.344;2023-03-01T15:26:29;3.83;;;1.10;;
70312;SDS011;57723;51.698;5.344;2023-03-01T15:28:55;2.17;;;1.00;;
70312;SDS011;57723;51.698;5.344;2023-03-01T15:31:31;3.03;;;1.10;;
70312;SDS011;57723;51.698;5.344;2023-03-01T15:36:45;2.97;;;1.30;;
70312;SDS011;57723;51.698;5.344;2023-03-01T15:39:23;2.53;;;1.20;;
70312;SDS011;57723;51.698;5.344;2023-03-01T15:41:51;3.60;;;1.13;;
70312;SDS011;57723;51.698;5.344;2023-03-01T15:44:17;2.00;;;1.10;;
70312;SDS011;57723;51.698;5.344;2023-03-01T15:46:46;3.45;;;1.20;;
70312;SDS011;57723;51.698;5.344;2023-03-01T15:49:23;2.05;;;0.90;;
70312;SDS011;57723;51.698;5.344;2023-03-01T15:51:51;3.10;;;1.20;;
70312;SDS011;57723;51.698;5.344;2023-03-01T15:54:19;1.73;;;1.00;;
70312;SDS011;57723;51.698;5.344;2023-03-01T15:56:45;2.45;;;1.40;;
70312;SDS011;57723;51.698;5.344;2023-03-01T15:59:11;1.93;;;1.00;;
70312;SDS011;57723;51.698;5.344;2023-03-01T16:01:38;2.40;;;1.00;;
70312;SDS011;57723;51.698;5.344;2023-03-01T16:04:04;3.27;;;1.13;;
70312;SDS011;57723;51.698;5.344;2023-03-01T16:06:29;2.93;;;1.20;;
70312;SDS011;57723;51.698;5.344;2023-03-01T16:08:55;1.67;;;1.00;;
70312;SDS011;57723;51.698;5.344;2023-03-01T16:11:20;2.30;;;1.10;;
70312;SDS011;57723;51.698;5.344;2023-03-01T16:13:48;1.70;;;0.90;;
70312;SDS011;57723;51.698;5.344;2023-03-01T16:16:15;2.15;;;1.15;;
70312;SDS011;57723;51.698;5.344;2023-03-01T16:18:47;2.53;;;1.20;;
70312;SDS011;57723;51.698;5.344;2023-03-01T16:21:34;3.70;;;1.23;;
70312;SDS011;57723;51.698;5.344;2023-03-01T16:23:58;2.05;;;1.02;;
70312;SDS011;57723;51.698;5.344;2023-03-01T16:26:24;2.43;;;1.10;;
70312;SDS011;57723;51.698;5.344;2023-03-01T16:28:54;2.85;;;1.25;;
70312;SDS011;57723;51.698;5.344;2023-03-01T16:31:19;3.00;;;1.15;;
70312;SDS011;57723;51.698;5.344;2023-03-01T16:33:45;2.50;;;1.10;;
70312;SDS011;57723;51.698;5.344;2023-03-01T16:36:15;1.85;;;1.10;;
70312;SDS011;57723;51.698;5.344;2023-03-01T16:38:40;2.80;;;1.20;;
70312;SDS011;57723;51.698;5.344;2023-03-01T16:41:16;2.60;;;1.10;;
70312;SDS011;57723;51.698;5.344;2023-03-01T16:43:42;3.30;;;1.23;;